Time;durP1;ratioP1;P1;durP2;ratioP2;P2;SDS_P1;SDS_P2;PMS_P1;PMS_P2;Temp;Humidity;BMP_temperature;BMP_pressure;BME280_temperature;BME280_humidity;BME280_pressure;Samples;Min_cycle;Max_cycle;Signal;HPM_P1;HPM_P2
2021/03/18 11:33:16;;;;;;;18.85;12.32;;;;;;;;;;5565239;23;20059;-70
2021/03/18 11:35:44;;;;;;;21.58;13.70;;;;;;;;;;4903510;29;20040;-70
2021/03/18 11:38:10;;;;;;;20.48;12.75;;;;;;;;;;4903232;29;20031;-71
2021/03/18 11:40:36;;;;;;;17.38;11.68;;;;;;;;;;4902926;29;20083;-71
2021/03/18 11:43:03;;;;;;;20.20;12.10;;;;;;;;;;4920047;29;20467;-72
2021/03/18 11:45:29;;;;;;;17.58;10.90;;;;;;;;;;4919005;29;20029;-71
2021/03/18 11:47:56;;;;;;;13.52;8.73;;;;;;;;;;4920079;29;20482;-71
2021/03/18 11:50:23;;;;;;;15.63;10.43;;;;;;;;;;4920165;29;20038;-72
2021/03/18 11:52:49;;;;;;;15.65;11.10;;;;;;;;;;4902965;29;20028;-71
2021/03/18 11:55:15;;;;;;;16.77;11.40;;;;;;;;;;4919087;29;20024;-70
2021/03/18 11:57:41;;;;;;;14.80;10.50;;;;;;;;;;4919870;29;20021;-70
2021/03/18 12:00:09;;;;;;;16.17;10.90;;;;;;;;;;4902963;29;20084;-71
2021/03/18 12:02:35;;;;;;;17.73;10.93;;;;;;;;;;4919399;29;20024;-69
2021/03/18 12:05:01;;;;;;;18.60;11.15;;;;;;;;;;4900864;29;20119;-71
2021/03/18 12:07:28;;;;;;;16.52;10.38;;;;;;;;;;4919550;29;20024;-70
2021/03/18 12:09:54;;;;;;;13.48;9.95;;;;;;;;;;4902395;29;20471;-70
2021/03/18 12:12:20;;;;;;;14.73;10.48;;;;;;;;;;4919730;29;20151;-71
2021/03/18 12:14:46;;;;;;;17.38;11.82;;;;;;;;;;4902513;29;20447;-70
2021/03/18 12:17:12;;;;;;;18.70;12.18;;;;;;;;;;4902599;29;20500;-70
2021/03/18 12:19:38;;;;;;;15.90;10.02;;;;;;;;;;4902621;29;20032;-70
2021/03/18 12:22:04;;;;;;;16.55;10.40;;;;;;;;;;4918950;29;20095;-70
2021/03/18 12:24:31;;;;;;;19.80;11.52;;;;;;;;;;4919170;29;20028;-70
2021/03/18 12:26:58;;;;;;;18.35;11.80;;;;;;;;;;4902414;29;20171;-70
2021/03/18 12:29:24;;;;;;;16.27;11.00;;;;;;;;;;4919436;29;20542;-70
2021/03/18 12:31:50;;;;;;;15.88;9.85;;;;;;;;;;4901928;29;20481;-71
2021/03/18 12:34:16;;;;;;;16.95;11.60;;;;;;;;;;4895287;29;20176;-70
2021/03/18 12:36:42;;;;;;;18.45;12.23;;;;;;;;;;4906408;29;20031;-72
2021/03/18 12:39:09;;;;;;;18.27;12.73;;;;;;;;;;4890850;29;20479;-69
2021/03/18 12:41:35;;;;;;;20.48;12.38;;;;;;;;;;4908348;29;20040;-71
2021/03/18 12:44:01;;;;;;;21.05;13.20;;;;;;;;;;4892215;29;20078;-68
2021/03/18 12:46:27;;;;;;;18.83;12.52;;;;;;;;;;4890731;29;20484;-70
2021/03/18 12:48:55;;;;;;;20.75;13.05;;;;;;;;;;4908310;29;20020;-70
2021/03/18 12:51:22;;;;;;;24.92;16.60;;;;;;;;;;4891939;29;20064;-71
2021/03/18 12:53:48;;;;;;;19.08;12.55;;;;;;;;;;4907212;29;20077;-73
2021/03/18 12:56:14;;;;;;;19.83;12.85;;;;;;;;;;4907677;29;20020;-70
2021/03/18 12:58:40;;;;;;;25.08;15.15;;;;;;;;;;4909090;29;20025;-70
2021/03/18 13:01:06;;;;;;;21.33;13.30;;;;;;;;;;4890603;29;20054;-70
2021/03/18 13:03:33;;;;;;;17.75;11.98;;;;;;;;;;4890620;29;20028;-70
2021/03/18 13:05:59;;;;;;;20.08;13.25;;;;;;;;;;4908768;29;20076;-72
2021/03/18 13:08:25;;;;;;;17.92;12.05;;;;;;;;;;4889951;29;20051;-69
2021/03/18 13:10:51;;;;;;;19.50;12.75;;;;;;;;;;4907863;29;20063;-70
2021/03/18 13:13:17;;;;;;;19.20;12.85;;;;;;;;;;4891204;29;20081;-71
2021/03/18 13:15:43;;;;;;;23.13;14.15;;;;;;;;;;4907145;29;20429;-72
2021/03/18 13:18:10;;;;;;;21.45;14.30;;;;;;;;;;4889393;29;20020;-74
2021/03/18 13:20:37;;;;;;;42.17;24.50;;;;;;;;;;4890751;29;20274;-70
2021/03/18 13:23:03;;;;;;;32.55;20.25;;;;;;;;;;4886927;29;20028;-70
2021/03/18 13:25:29;;;;;;;19.83;13.00;;;;;;;;;;4881242;29;20061;-70
2021/03/18 13:27:55;;;;;;;20.73;13.15;;;;;;;;;;4897142;29;20053;-71
2021/03/18 13:30:23;;;;;;;22.27;14.15;;;;;;;;;;4897327;29;20036;-71
2021/03/18 13:32:50;;;;;;;24.60;15.48;;;;;;;;;;4880683;29;20108;-74
2021/03/18 13:35:17;;;;;;;22.00;13.50;;;;;;;;;;4882618;29;20052;-71
2021/03/18 13:37:43;;;;;;;19.60;12.73;;;;;;;;;;4882725;29;20039;-69
2021/03/18 13:40:10;;;;;;;20.00;13.55;;;;;;;;;;4882327;29;20547;-71
2021/03/18 13:42:36;;;;;;;20.98;13.90;;;;;;;;;;4882458;29;20035;-69
2021/03/18 13:45:03;;;;;;;24.90;13.80;;;;;;;;;;4888956;29;20129;-71
2021/03/18 13:47:29;;;;;;;24.80;13.57;;;;;;;;;;4917335;29;20047;-70
2021/03/18 13:49:56;;;;;;;22.27;14.07;;;;;;;;;;4900524;29;20020;-72
2021/03/18 13:52:22;;;;;;;26.98;15.60;;;;;;;;;;4900277;29;20020;-72
2021/03/18 13:54:48;;;;;;;24.55;15.10;;;;;;;;;;4900094;29;20119;-67
2021/03/18 13:57:14;;;;;;;25.70;14.60;;;;;;;;;;4916235;29;20469;-69
2021/03/18 13:59:40;;;;;;;23.17;14.65;;;;;;;;;;4899018;29;20072;-69
2021/03/18 14:02:06;;;;;;;22.50;14.43;;;;;;;;;;4899491;29;20492;-67
2021/03/18 14:04:32;;;;;;;19.20;12.50;;;;;;;;;;4916573;29;20024;-68
2021/03/18 14:06:58;;;;;;;23.83;14.27;;;;;;;;;;4916916;29;20038;-69
2021/03/18 14:09:25;;;;;;;21.85;14.60;;;;;;;;;;4899950;29;20476;-69
2021/03/18 14:11:51;;;;;;;20.73;14.27;;;;;;;;;;4917167;29;20127;-72
2021/03/18 14:14:17;;;;;;;20.92;13.35;;;;;;;;;;4899801;29;20028;-70
2021/03/18 14:16:43;;;;;;;22.77;13.25;;;;;;;;;;4899970;29;20024;-66
2021/03/18 14:19:09;;;;;;;17.35;11.70;;;;;;;;;;4916129;29;20362;-72
2021/03/18 14:21:36;;;;;;;19.77;12.88;;;;;;;;;;4895909;29;20040;-69
2021/03/18 14:24:03;;;;;;;19.15;13.45;;;;;;;;;;4900346;29;20101;-69
2021/03/18 14:26:29;;;;;;;20.40;13.85;;;;;;;;;;4916988;29;20031;-67
2021/03/18 14:28:55;;;;;;;19.15;13.20;;;;;;;;;;4917740;29;20032;-67
2021/03/18 14:31:21;;;;;;;19.20;12.70;;;;;;;;;;4916675;29;20044;-68
2021/03/18 14:33:47;;;;;;;19.30;13.00;;;;;;;;;;4916923;29;20056;-70
2021/03/18 14:36:18;;;;;;;18.15;13.10;;;;;;;;;;4899649;29;20020;-71
2021/03/18 14:38:47;;;;;;;17.63;11.82;;;;;;;;;;4916250;29;20027;-68
2021/03/18 14:41:13;;;;;;;20.23;13.15;;;;;;;;;;4899356;29;20472;-71
2021/03/18 14:43:40;;;;;;;19.05;12.82;;;;;;;;;;4903883;29;20383;-69
2021/03/18 14:46:06;;;;;;;23.63;13.35;;;;;;;;;;4921180;29;20464;-68
2021/03/18 14:48:32;;;;;;;19.25;12.57;;;;;;;;;;4920556;29;20063;-68
2021/03/18 14:50:58;;;;;;;21.20;12.90;;;;;;;;;;4920681;29;20038;-67
2021/03/18 14:53:25;;;;;;;21.60;15.20;;;;;;;;;;4919833;29;20093;-70
2021/03/18 14:55:52;;;;;;;33.58;19.25;;;;;;;;;;4920911;29;20024;-70
2021/03/18 14:58:22;;;;;;;31.20;17.85;;;;;;;;;;4904584;29;20082;-71
2021/03/18 15:00:49;;;;;;;25.33;14.88;;;;;;;;;;4921094;29;20028;-71
2021/03/18 15:03:15;;;;;;;32.42;19.40;;;;;;;;;;4903515;29;20212;-73
2021/03/18 15:05:41;;;;;;;40.15;22.73;;;;;;;;;;4903809;29;20020;-71
2021/03/18 15:08:08;;;;;;;26.00;15.88;;;;;;;;;;4920768;29;20440;-71
2021/03/18 15:10:43;;;;;;;23.42;14.35;;;;;;;;;;4903243;29;20047;-70
2021/03/18 15:13:16;;;;;;;22.67;14.10;;;;;;;;;;4885151;29;20412;-72
2021/03/18 15:15:43;;;;;;;20.58;14.00;;;;;;;;;;4918496;29;20048;-67
2021/03/18 15:18:09;;;;;;;20.65;13.90;;;;;;;;;;4920327;29;20028;-72
2021/03/18 15:20:40;;;;;;;24.05;14.27;;;;;;;;;;4902293;29;20163;-69
2021/03/18 15:23:07;;;;;;;16.35;10.45;;;;;;;;;;4901486;29;20523;-67
2021/03/18 15:25:34;;;;;;;17.55;11.02;;;;;;;;;;4919623;29;20020;-70
2021/03/18 15:28:00;;;;;;;19.45;11.52;;;;;;;;;;4919939;29;20436;-71
2021/03/18 15:30:27;;;;;;;18.23;10.60;;;;;;;;;;4915399;29;20040;-70
2021/03/18 15:32:53;;;;;;;17.02;10.13;;;;;;;;;;4903094;29;20083;-72
2021/03/18 15:35:20;;;;;;;16.48;9.77;;;;;;;;;;4919610;29;20084;-69
2021/03/18 15:37:47;;;;;;;14.70;9.15;;;;;;;;;;4902008;29;20084;-72
2021/03/18 15:40:15;;;;;;;15.10;8.45;;;;;;;;;;4902553;29;20075;-71
2021/03/18 15:42:41;;;;;;;13.55;8.30;;;;;;;;;;4902890;29;20032;-72
2021/03/18 15:45:08;;;;;;;15.00;8.85;;;;;;;;;;4917985;29;20131;-72
2021/03/18 15:47:34;;;;;;;16.35;8.05;;;;;;;;;;4900641;29;20072;-73
2021/03/18 15:50:01;;;;;;;12.63;7.45;;;;;;;;;;4902377;29;20028;-72
2021/03/18 15:52:27;;;;;;;10.60;6.40;;;;;;;;;;4901421;29;20047;-73
2021/03/18 15:54:54;;;;;;;12.13;6.82;;;;;;;;;;4902309;29;20506;-72
2021/03/18 15:57:20;;;;;;;16.25;10.43;;;;;;;;;;4901882;29;20032;-72
2021/03/18 15:59:46;;;;;;;14.18;7.80;;;;;;;;;;4900724;29;20032;-73
2021/03/18 16:02:12;;;;;;;13.57;8.30;;;;;;;;;;4902869;29;20048;-71
2021/03/18 16:04:38;;;;;;;10.80;6.57;;;;;;;;;;4919530;29;20101;-72
2021/03/18 16:07:04;;;;;;;11.15;6.82;;;;;;;;;;4901870;29;20035;-72
2021/03/18 16:09:30;;;;;;;10.63;7.18;;;;;;;;;;4919738;29;20471;-72
2021/03/18 16:11:56;;;;;;;12.68;7.43;;;;;;;;;;4902507;29;20095;-72
2021/03/18 16:14:23;;;;;;;12.27;7.75;;;;;;;;;;4901498;29;20380;-72
2021/03/18 16:16:49;;;;;;;17.73;11.05;;;;;;;;;;4897026;29;20028;-75
2021/03/18 16:19:15;;;;;;;13.88;7.38;;;;;;;;;;4919294;29;20072;-71
2021/03/18 16:21:41;;;;;;;11.77;7.15;;;;;;;;;;4901894;29;20391;-74
2021/03/18 16:24:08;;;;;;;10.13;6.28;;;;;;;;;;4902562;29;20035;-76
2021/03/18 16:26:34;;;;;;;9.85;6.35;;;;;;;;;;4902447;29;20028;-73
2021/03/18 16:29:00;;;;;;;10.90;6.65;;;;;;;;;;4913423;29;20484;-71
2021/03/18 16:31:27;;;;;;;10.70;6.30;;;;;;;;;;4895944;29;20036;-73
2021/03/18 16:33:53;;;;;;;10.32;6.30;;;;;;;;;;4903837;29;20051;-75
2021/03/18 16:36:19;;;;;;;12.90;7.32;;;;;;;;;;4884709;29;20029;-74
2021/03/18 16:38:45;;;;;;;11.57;6.82;;;;;;;;;;4902817;29;20025;-74
2021/03/18 16:41:11;;;;;;;10.63;6.82;;;;;;;;;;4909530;29;20611;-73
2021/03/18 16:43:37;;;;;;;12.18;6.95;;;;;;;;;;4894763;29;20043;-73
2021/03/18 16:46:05;;;;;;;11.35;7.55;;;;;;;;;;4889953;29;20021;-72
2021/03/18 16:48:35;;;;;;;13.63;8.05;;;;;;;;;;4890027;29;20020;-73
2021/03/18 16:51:02;;;;;;;13.50;7.72;;;;;;;;;;4889333;29;20071;-72
2021/03/18 16:53:28;;;;;;;12.77;8.05;;;;;;;;;;4909777;29;20104;-72
2021/03/18 16:55:54;;;;;;;16.77;10.25;;;;;;;;;;4908794;29;20123;-72
2021/03/18 16:58:20;;;;;;;13.95;9.00;;;;;;;;;;4892157;29;20032;-75
2021/03/18 17:00:48;;;;;;;17.65;10.35;;;;;;;;;;4895650;29;20020;-75
2021/03/18 17:03:14;;;;;;;26.33;13.98;;;;;;;;;;4907530;29;20024;-75
2021/03/18 17:05:41;;;;;;;36.17;18.45;;;;;;;;;;4895422;29;20120;-73
2021/03/18 17:08:24;;;;;;;20.92;11.95;;;;;;;;;;4893157;29;20550;-72
2021/03/18 17:11:14;;;;;;;24.55;14.13;;;;;;;;;;4886328;29;20134;-73
2021/03/18 17:13:48;;;;;;;35.28;18.55;;;;;;;;;;4901230;29;20035;-72
2021/03/18 17:16:14;;;;;;;39.60;20.13;;;;;;;;;;4912491;29;20013;-75
2021/03/18 17:18:40;;;;;;;66.57;34.33;;;;;;;;;;4894788;29;20059;-74
2021/03/18 17:21:09;;;;;;;57.35;27.95;;;;;;;;;;4884637;29;20108;-74
2021/03/18 17:23:37;;;;;;;35.00;19.13;;;;;;;;;;4910866;29;20036;-73
2021/03/18 17:26:04;;;;;;;59.55;30.65;;;;;;;;;;4896924;29;20034;-74
2021/03/18 17:28:30;;;;;;;66.97;37.08;;;;;;;;;;4888096;29;20045;-73
2021/03/18 17:30:57;;;;;;;77.53;43.88;;;;;;;;;;4887124;29;20035;-72
2021/03/18 17:33:26;;;;;;;46.08;24.60;;;;;;;;;;4886928;29;20041;-73
2021/03/18 17:35:53;;;;;;;40.60;23.15;;;;;;;;;;4887390;29;20035;-74
2021/03/18 17:38:19;;;;;;;36.90;21.23;;;;;;;;;;4887272;29;20033;-73
2021/03/18 17:40:46;;;;;;;32.38;18.92;;;;;;;;;;4891976;29;20024;-74
2021/03/18 17:43:12;;;;;;;32.63;19.55;;;;;;;;;;4892772;29;20059;-75
2021/03/18 17:45:41;;;;;;;32.03;19.73;;;;;;;;;;4895346;29;20032;-75
2021/03/18 17:48:07;;;;;;;34.28;20.65;;;;;;;;;;4894320;29;20083;-76
2021/03/18 17:50:34;;;;;;;34.92;20.58;;;;;;;;;;4907619;29;20032;-76
2021/03/18 17:53:01;;;;;;;32.83;19.17;;;;;;;;;;4903054;29;20091;-73
2021/03/18 17:55:27;;;;;;;33.92;20.30;;;;;;;;;;4892083;29;20137;-73
2021/03/18 17:57:53;;;;;;;31.50;18.67;;;;;;;;;;4897048;29;20407;-73
2021/03/18 18:00:21;;;;;;;30.35;19.00;;;;;;;;;;4916812;29;20024;-73
2021/03/18 18:02:47;;;;;;;29.60;18.25;;;;;;;;;;4899931;29;20028;-73
2021/03/18 18:05:13;;;;;;;32.22;19.45;;;;;;;;;;4900085;29;20079;-73
2021/03/18 18:07:44;;;;;;;28.67;17.75;;;;;;;;;;4900427;29;20029;-70
2021/03/18 18:10:12;;;;;;;29.25;18.10;;;;;;;;;;4900280;29;20119;-71
2021/03/18 18:12:42;;;;;;;30.42;17.88;;;;;;;;;;4900021;29;20032;-73
2021/03/18 18:15:14;;;;;;;28.33;18.35;;;;;;;;;;4914470;29;20028;-72
2021/03/18 18:17:40;;;;;;;31.33;18.85;;;;;;;;;;4900317;29;20025;-72
2021/03/18 18:20:07;;;;;;;29.60;19.05;;;;;;;;;;4900162;29;20032;-70
2021/03/18 18:22:33;;;;;;;30.25;19.02;;;;;;;;;;4900207;29;20029;-72
2021/03/18 18:24:59;;;;;;;36.35;20.25;;;;;;;;;;4896393;29;20055;-73
2021/03/18 18:27:28;;;;;;;30.60;19.83;;;;;;;;;;4897564;29;20024;-72
2021/03/18 18:29:55;;;;;;;32.97;20.63;;;;;;;;;;4896761;29;20115;-72
2021/03/18 18:32:21;;;;;;;32.83;19.98;;;;;;;;;;4914523;29;20131;-74
2021/03/18 18:34:47;;;;;;;32.10;20.02;;;;;;;;;;4898347;29;20115;-74
2021/03/18 18:37:13;;;;;;;32.50;20.90;;;;;;;;;;4898908;29;20032;-70
2021/03/18 18:39:39;;;;;;;31.60;20.00;;;;;;;;;;4897707;29;20135;-71
2021/03/18 18:42:05;;;;;;;35.05;20.77;;;;;;;;;;4915903;29;20556;-71
2021/03/18 18:44:38;;;;;;;34.85;21.48;;;;;;;;;;4889799;29;20461;-73
2021/03/18 18:47:04;;;;;;;35.47;21.45;;;;;;;;;;4889493;29;20040;-76
2021/03/18 18:49:30;;;;;;;34.13;21.88;;;;;;;;;;4898994;29;20047;-74
2021/03/18 18:51:56;;;;;;;35.60;22.02;;;;;;;;;;4899401;29;20468;-73
2021/03/18 18:54:22;;;;;;;40.15;23.90;;;;;;;;;;4914858;29;20035;-74
2021/03/18 18:56:49;;;;;;;35.88;21.35;;;;;;;;;;4914492;29;20080;-73
2021/03/18 18:59:15;;;;;;;34.72;21.42;;;;;;;;;;4899246;29;20035;-74
2021/03/18 19:01:41;;;;;;;33.80;21.23;;;;;;;;;;4898394;29;20040;-75
2021/03/18 19:04:07;;;;;;;33.28;21.23;;;;;;;;;;4915819;29;20032;-75
2021/03/18 19:06:34;;;;;;;33.10;20.55;;;;;;;;;;4916337;29;20088;-72
2021/03/18 19:09:00;;;;;;;34.17;21.58;;;;;;;;;;4895970;29;20043;-72
2021/03/18 19:11:26;;;;;;;34.30;21.52;;;;;;;;;;4915779;29;20028;-72
2021/03/18 19:13:52;;;;;;;33.40;21.45;;;;;;;;;;4916590;29;20476;-72
2021/03/18 19:16:18;;;;;;;34.47;21.70;;;;;;;;;;4915598;29;20039;-74
2021/03/18 19:18:44;;;;;;;34.88;21.00;;;;;;;;;;4899487;29;20504;-73
2021/03/18 19:21:11;;;;;;;35.65;21.88;;;;;;;;;;4895297;29;20035;-71
2021/03/18 19:23:38;;;;;;;34.22;21.38;;;;;;;;;;4898746;29;20111;-74
2021/03/18 19:26:04;;;;;;;34.88;21.98;;;;;;;;;;4898514;29;20036;-73
2021/03/18 19:28:30;;;;;;;36.22;22.88;;;;;;;;;;4900516;29;20025;-72
2021/03/18 19:30:57;;;;;;;40.88;24.80;;;;;;;;;;4896450;29;20036;-72
2021/03/18 19:33:24;;;;;;;37.88;22.65;;;;;;;;;;4892032;29;20048;-68
2021/03/18 19:35:51;;;;;;;34.20;21.80;;;;;;;;;;4886666;29;20056;-70
2021/03/18 19:38:24;;;;;;;34.15;21.73;;;;;;;;;;4909771;29;20103;-71
2021/03/18 19:40:53;;;;;;;35.40;21.75;;;;;;;;;;4901621;29;20496;-70
2021/03/18 19:43:23;;;;;;;32.97;20.83;;;;;;;;;;4890000;29;20024;-75
2021/03/18 19:45:50;;;;;;;33.28;20.50;;;;;;;;;;4893725;29;20047;-75
2021/03/18 19:48:16;;;;;;;32.63;21.40;;;;;;;;;;4912053;29;20024;-72
2021/03/18 19:50:48;;;;;;;35.72;21.08;;;;;;;;;;4912207;29;20047;-70
2021/03/18 19:53:14;;;;;;;33.57;21.50;;;;;;;;;;4915010;29;20107;-71
2021/03/18 19:55:40;;;;;;;34.20;20.45;;;;;;;;;;4910238;29;20036;-70
2021/03/18 19:58:07;;;;;;;31.10;20.13;;;;;;;;;;4891140;29;20040;-72
2021/03/18 20:00:33;;;;;;;31.83;19.90;;;;;;;;;;4909239;29;20115;-72
2021/03/18 20:03:00;;;;;;;31.52;20.13;;;;;;;;;;4903557;29;20461;-73
2021/03/18 20:05:30;;;;;;;32.47;20.88;;;;;;;;;;4889553;29;20071;-73
2021/03/18 20:07:56;;;;;;;32.45;20.17;;;;;;;;;;4894665;29;20025;-71
2021/03/18 20:10:24;;;;;;;33.35;20.23;;;;;;;;;;4893097;29;20083;-72
2021/03/18 20:12:50;;;;;;;30.58;19.48;;;;;;;;;;4889661;29;20039;-70
2021/03/18 20:15:17;;;;;;;29.15;18.90;;;;;;;;;;4899128;29;20024;-72
2021/03/18 20:17:43;;;;;;;32.88;20.52;;;;;;;;;;4895837;29;20119;-74
2021/03/18 20:20:11;;;;;;;29.77;19.23;;;;;;;;;;4915602;29;20422;-73
2021/03/18 20:22:37;;;;;;;33.20;20.38;;;;;;;;;;4896322;29;20676;-73
2021/03/18 20:25:05;;;;;;;34.45;20.63;;;;;;;;;;4897612;29;20426;-76
2021/03/18 20:27:31;;;;;;;33.78;20.52;;;;;;;;;;4893146;29;20032;-72
2021/03/18 20:29:57;;;;;;;35.63;21.63;;;;;;;;;;4906430;29;20108;-73
2021/03/18 20:32:23;;;;;;;36.47;22.70;;;;;;;;;;4891155;29;20775;-73
2021/03/18 20:34:50;;;;;;;39.95;24.25;;;;;;;;;;4886531;29;20476;-73
2021/03/18 20:37:16;;;;;;;40.30;25.05;;;;;;;;;;4886748;29;20036;-72
2021/03/18 20:39:42;;;;;;;36.97;22.60;;;;;;;;;;4901802;29;20032;-72
2021/03/18 20:42:09;;;;;;;35.15;21.95;;;;;;;;;;4887561;29;20540;-71
2021/03/18 20:44:38;;;;;;;33.08;21.55;;;;;;;;;;4886856;29;20083;-73
2021/03/18 20:47:04;;;;;;;33.88;21.02;;;;;;;;;;4888694;29;20040;-74
2021/03/18 20:49:45;;;;;;;35.28;21.08;;;;;;;;;;4886751;29;20083;-73
2021/03/18 20:52:11;;;;;;;36.15;22.73;;;;;;;;;;4887517;29;20494;-71
2021/03/18 20:54:37;;;;;;;32.20;20.50;;;;;;;;;;4903426;29;20025;-72
2021/03/18 20:57:04;;;;;;;34.88;21.33;;;;;;;;;;4904897;29;20021;-71
2021/03/18 20:59:30;;;;;;;32.25;21.02;;;;;;;;;;4889170;29;20036;-71
2021/03/18 21:01:56;;;;;;;29.42;19.27;;;;;;;;;;4907885;29;20116;-71
2021/03/18 21:04:22;;;;;;;27.80;18.45;;;;;;;;;;4909692;29;20104;-71
2021/03/18 21:06:48;;;;;;;26.98;17.35;;;;;;;;;;4899301;29;20024;-71
2021/03/18 21:09:15;;;;;;;29.52;19.40;;;;;;;;;;4917868;29;20368;-72
2021/03/18 21:11:41;;;;;;;28.23;17.08;;;;;;;;;;4917452;29;20040;-70
2021/03/18 21:14:07;;;;;;;28.58;18.05;;;;;;;;;;4900171;29;20025;-70
2021/03/18 21:16:34;;;;;;;27.08;17.50;;;;;;;;;;4901683;29;20034;-71
2021/03/18 21:19:00;;;;;;;27.67;17.95;;;;;;;;;;4895068;29;20024;-70
2021/03/18 21:21:26;;;;;;;28.90;18.38;;;;;;;;;;4910140;29;20051;-69
2021/03/18 21:23:52;;;;;;;29.20;17.90;;;;;;;;;;4917523;29;20380;-68
2021/03/18 21:26:19;;;;;;;27.38;17.40;;;;;;;;;;4917606;29;20119;-70
2021/03/18 21:28:45;;;;;;;28.65;17.63;;;;;;;;;;4915235;29;20067;-67
2021/03/18 21:31:11;;;;;;;25.55;16.30;;;;;;;;;;4909898;29;20433;-68
2021/03/18 21:33:39;;;;;;;27.30;17.83;;;;;;;;;;4895903;29;20056;-69
2021/03/18 21:36:06;;;;;;;24.48;16.13;;;;;;;;;;4915437;29;20115;-68
2021/03/18 21:38:32;;;;;;;26.52;16.98;;;;;;;;;;4915109;29;20488;-69
2021/03/18 21:40:58;;;;;;;27.50;16.75;;;;;;;;;;4915368;29;20024;-71
2021/03/18 21:43:24;;;;;;;27.13;16.85;;;;;;;;;;4914807;29;20062;-68
2021/03/18 21:45:51;;;;;;;24.88;16.13;;;;;;;;;;4915456;29;20549;-70
2021/03/18 21:48:17;;;;;;;27.67;16.40;;;;;;;;;;4917321;29;20444;-69
2021/03/18 21:50:43;;;;;;;27.95;16.58;;;;;;;;;;4916313;29;20432;-69
2021/03/18 21:53:10;;;;;;;23.95;15.75;;;;;;;;;;4915915;29;20429;-70
2021/03/18 21:55:36;;;;;;;24.60;15.80;;;;;;;;;;4898086;29;20026;-69
2021/03/18 21:58:03;;;;;;;27.45;15.80;;;;;;;;;;4916367;29;20055;-70
2021/03/18 22:00:29;;;;;;;24.65;15.77;;;;;;;;;;4899651;29;20467;-70
2021/03/18 22:02:56;;;;;;;23.30;15.40;;;;;;;;;;4916239;29;20365;-69
2021/03/18 22:05:22;;;;;;;25.45;15.10;;;;;;;;;;4916996;29;20035;-70
2021/03/18 22:07:48;;;;;;;23.83;14.75;;;;;;;;;;4917306;29;20043;-69
2021/03/18 22:10:15;;;;;;;23.00;14.57;;;;;;;;;;4917665;29;20051;-70
2021/03/18 22:12:41;;;;;;;22.42;14.35;;;;;;;;;;4918149;29;20065;-70
2021/03/18 22:15:08;;;;;;;24.33;15.85;;;;;;;;;;4917866;29;20024;-70
2021/03/18 22:17:34;;;;;;;22.40;14.98;;;;;;;;;;4917248;29;20420;-70
2021/03/18 22:20:00;;;;;;;24.88;14.82;;;;;;;;;;4917802;29;20472;-69
2021/03/18 22:22:26;;;;;;;23.88;14.82;;;;;;;;;;4917740;29;20089;-70
2021/03/18 22:24:52;;;;;;;22.20;13.88;;;;;;;;;;4917684;29;20492;-69
2021/03/18 22:27:18;;;;;;;22.23;14.18;;;;;;;;;;4917620;29;20453;-69
2021/03/18 22:29:44;;;;;;;21.60;13.32;;;;;;;;;;4917354;29;20025;-70
2021/03/18 22:32:10;;;;;;;21.10;13.55;;;;;;;;;;4916774;29;20119;-69
2021/03/18 22:34:37;;;;;;;24.70;14.05;;;;;;;;;;4900669;29;20020;-70
2021/03/18 22:37:03;;;;;;;20.58;12.23;;;;;;;;;;4917824;29;20028;-69
2021/03/18 22:39:29;;;;;;;20.85;13.95;;;;;;;;;;4917347;29;20043;-70
2021/03/18 22:41:55;;;;;;;20.55;13.40;;;;;;;;;;4917646;29;20087;-71
2021/03/18 22:44:21;;;;;;;23.52;13.75;;;;;;;;;;4917741;29;20032;-70
2021/03/18 22:46:47;;;;;;;22.10;13.73;;;;;;;;;;4917702;29;20507;-70
2021/03/18 22:49:13;;;;;;;21.52;14.82;;;;;;;;;;4917824;29;20059;-69
2021/03/18 22:51:39;;;;;;;21.27;13.95;;;;;;;;;;4900124;29;20477;-70
2021/03/18 22:54:05;;;;;;;21.95;13.73;;;;;;;;;;4917192;29;20039;-69
2021/03/18 22:56:32;;;;;;;20.95;13.43;;;;;;;;;;4917439;29;20035;-70
2021/03/18 22:58:58;;;;;;;20.73;13.15;;;;;;;;;;4916848;29;20450;-69
2021/03/18 23:01:24;;;;;;;20.48;13.38;;;;;;;;;;4900412;29;20036;-70
2021/03/18 23:03:50;;;;;;;20.83;13.70;;;;;;;;;;4919677;29;20529;-70
2021/03/18 23:06:17;;;;;;;20.50;12.90;;;;;;;;;;4921102;29;20036;-70
2021/03/18 23:08:48;;;;;;;23.08;12.95;;;;;;;;;;4921302;29;20464;-69
2021/03/18 23:11:23;;;;;;;20.38;13.07;;;;;;;;;;4904103;29;20028;-69
2021/03/18 23:13:52;;;;;;;21.42;12.82;;;;;;;;;;4903857;29;20036;-68
2021/03/18 23:16:19;;;;;;;19.17;12.32;;;;;;;;;;4904604;29;20461;-69
2021/03/18 23:21:30;;;;;;;23.25;13.48;;;;;;;;;;4920707;29;20110;-69
2021/03/18 23:23:56;;;;;;;21.20;13.25;;;;;;;;;;4920634;29;20031;-70
2021/03/18 23:26:23;;;;;;;21.42;13.75;;;;;;;;;;4920500;29;20076;-69
2021/03/18 23:28:50;;;;;;;20.88;13.82;;;;;;;;;;4903783;29;20058;-69
2021/03/18 23:31:16;;;;;;;23.40;14.10;;;;;;;;;;4920267;29;20543;-69
2021/03/18 23:33:42;;;;;;;20.85;13.40;;;;;;;;;;4903112;29;20146;-69
2021/03/18 23:36:08;;;;;;;22.25;13.77;;;;;;;;;;4921007;29;20071;-70
2021/03/18 23:38:35;;;;;;;22.38;13.65;;;;;;;;;;4920308;29;20028;-69
2021/03/18 23:41:01;;;;;;;21.92;13.48;;;;;;;;;;4920017;29;20051;-70
2021/03/18 23:43:27;;;;;;;21.45;13.32;;;;;;;;;;4920251;29;20087;-70
2021/03/18 23:45:53;;;;;;;23.08;13.48;;;;;;;;;;4903550;29;20469;-69
2021/03/18 23:48:19;;;;;;;20.77;12.73;;;;;;;;;;4920570;29;20032;-69
2021/03/18 23:50:46;;;;;;;20.02;12.75;;;;;;;;;;4920362;29;20051;-69
2021/03/18 23:53:12;;;;;;;18.27;12.45;;;;;;;;;;4920379;29;20032;-70
2021/03/18 23:55:38;;;;;;;19.15;12.18;;;;;;;;;;4903103;29;20028;-70
2021/03/18 23:58:04;;;;;;;19.58;11.52;;;;;;;;;;4920016;29;20084;-69
